createdAt,value
2018-07-14T00:02:05.418Z,7.33
2018-07-14T00:04:36.108Z,8.17
2018-07-14T00:07:07.008Z,5.97
2018-07-14T00:09:37.712Z,5.10
2018-07-14T00:12:08.434Z,5.47
2018-07-14T00:14:39.111Z,9.20
2018-07-14T00:17:09.779Z,6.30
2018-07-14T00:19:40.546Z,7.03
2018-07-14T00:22:11.262Z,6.90
2018-07-14T00:24:41.994Z,6.43
2018-07-14T00:27:12.664Z,5.83
2018-07-14T00:29:43.406Z,7.10
2018-07-14T00:32:14.111Z,5.30
2018-07-14T00:34:44.812Z,8.57
2018-07-14T00:37:15.475Z,5.40
2018-07-14T00:39:46.307Z,6.33
2018-07-14T00:42:16.981Z,5.63
2018-07-14T00:44:47.692Z,7.27
2018-07-14T00:47:18.378Z,8.13
2018-07-14T00:49:49.088Z,6.20
2018-07-14T00:52:19.798Z,5.63
2018-07-14T00:54:50.441Z,10.80
2018-07-14T00:57:21.154Z,6.53
2018-07-14T00:59:51.855Z,5.97
2018-07-14T01:02:22.495Z,6.10
2018-07-14T01:04:53.156Z,7.13
2018-07-14T01:07:23.778Z,6.07
2018-07-14T01:09:54.490Z,5.67
2018-07-14T01:12:25.172Z,10.77
2018-07-14T01:15:26.779Z,7.17
2018-07-14T01:17:57.493Z,5.37
2018-07-14T01:20:28.326Z,6.60
2018-07-14T01:22:58.982Z,6.23
2018-07-14T01:25:29.687Z,6.83
2018-07-14T01:28:00.444Z,7.03
2018-07-14T01:30:31.226Z,6.97
2018-07-14T01:33:01.862Z,6.80
2018-07-14T01:35:32.541Z,7.03
2018-07-14T01:38:03.247Z,8.43
2018-07-14T01:40:33.927Z,6.47
2018-07-14T01:43:04.729Z,7.90
2018-07-14T01:45:35.490Z,9.07
2018-07-14T01:48:06.373Z,7.03
2018-07-14T01:50:37.105Z,7.67
2018-07-14T01:53:08.132Z,7.67
2018-07-14T01:55:38.904Z,15.13
2018-07-14T01:58:09.535Z,14.97
2018-07-14T02:00:40.215Z,10.30
2018-07-14T02:03:10.955Z,11.77
2018-07-14T02:05:41.615Z,10.60
2018-07-14T02:08:12.268Z,11.30
2018-07-14T02:10:43.000Z,11.53
2018-07-14T02:13:13.689Z,10.77
2018-07-14T02:15:44.342Z,10.60
2018-07-14T02:18:15.046Z,10.07
2018-07-14T02:20:45.709Z,10.50
2018-07-14T02:23:16.387Z,10.77
2018-07-14T02:25:49.957Z,10.57
2018-07-14T02:28:20.604Z,12.07
2018-07-14T02:30:51.286Z,12.07
2018-07-14T02:33:21.927Z,15.57
2018-07-14T02:35:52.628Z,11.53
2018-07-14T02:38:23.336Z,12.63
2018-07-14T02:40:54.103Z,13.97
2018-07-14T02:43:24.810Z,12.20
2018-07-14T02:46:26.124Z,12.33
2018-07-14T02:48:56.818Z,12.47
2018-07-14T02:51:27.478Z,13.20
2018-07-14T02:53:58.160Z,12.33
2018-07-14T02:56:28.783Z,11.50
2018-07-14T02:58:59.444Z,14.20
2018-07-14T03:01:30.089Z,12.43
2018-07-14T03:04:00.772Z,10.87
2018-07-14T03:06:31.435Z,14.27
2018-07-14T03:09:02.140Z,12.97
2018-07-14T03:11:32.825Z,13.30
2018-07-14T03:14:04.475Z,15.17
2018-07-14T03:16:35.229Z,12.63
2018-07-14T03:19:05.940Z,14.87
2018-07-14T03:21:36.705Z,14.93
2018-07-14T03:24:07.559Z,12.60
2018-07-14T03:26:38.659Z,15.70
2018-07-14T03:29:09.357Z,15.63
2018-07-14T03:31:40.135Z,13.30
2018-07-14T03:34:10.804Z,13.30
2018-07-14T03:36:41.556Z,15.70
2018-07-14T03:39:12.323Z,14.37
2018-07-14T03:41:43.020Z,15.20
2018-07-14T03:44:13.664Z,16.40
2018-07-14T03:46:44.348Z,13.70
2018-07-14T03:49:14.981Z,15.47
2018-07-14T03:51:45.651Z,16.00
2018-07-14T03:54:16.320Z,16.63
2018-07-14T03:56:47.161Z,13.30
2018-07-14T03:59:17.787Z,16.07
2018-07-14T04:01:48.524Z,14.30
2018-07-14T04:04:19.204Z,16.63
2018-07-14T04:06:56.371Z,16.37
2018-07-14T04:09:27.072Z,16.47
2018-07-14T04:11:57.803Z,16.27
2018-07-14T04:14:28.519Z,14.37
2018-07-14T04:16:59.212Z,14.00
2018-07-14T04:19:29.886Z,18.30
2018-07-14T04:22:00.558Z,15.77
2018-07-14T04:24:31.323Z,16.13
2018-07-14T04:27:01.998Z,15.87
2018-07-14T04:29:32.727Z,16.33
2018-07-14T04:32:03.571Z,18.10
2018-07-14T04:34:34.178Z,16.47
2018-07-14T04:37:04.841Z,15.63
2018-07-14T04:39:35.503Z,16.60
2018-07-14T04:42:06.206Z,19.13
2018-07-14T04:44:36.873Z,16.10
2018-07-14T04:47:07.578Z,18.27
2018-07-14T04:49:38.224Z,16.43
2018-07-14T04:52:08.964Z,16.67
2018-07-14T04:54:39.650Z,16.63
2018-07-14T04:57:10.316Z,16.77
2018-07-14T04:59:40.742Z,15.30
2018-07-14T05:02:11.305Z,19.13
2018-07-14T05:04:42.074Z,14.93
2018-07-14T05:07:12.756Z,17.00
2018-07-14T05:09:43.505Z,17.20
2018-07-14T05:12:14.232Z,16.97
2018-07-14T05:14:44.953Z,18.77
2018-07-14T05:17:15.578Z,19.30
2018-07-14T05:19:46.327Z,17.60
2018-07-14T05:22:17.106Z,17.77
2018-07-14T05:24:47.794Z,16.73
2018-07-14T05:27:18.441Z,20.27
2018-07-14T05:29:49.239Z,19.63
2018-07-14T05:32:19.916Z,15.63
2018-07-14T05:34:50.553Z,16.40
2018-07-14T05:37:21.227Z,16.43
2018-07-14T05:39:51.956Z,15.70
2018-07-14T05:42:22.656Z,16.17
2018-07-14T05:44:53.287Z,17.17
2018-07-14T05:47:23.981Z,19.60
2018-07-14T05:49:54.657Z,17.37
2018-07-14T05:52:25.378Z,16.50
2018-07-14T05:54:56.091Z,15.47
2018-07-14T05:57:26.765Z,15.27
2018-07-14T05:59:57.435Z,16.20
2018-07-14T06:02:28.173Z,19.67
2018-07-14T06:04:58.860Z,19.13
2018-07-14T06:07:29.508Z,17.23
2018-07-14T06:10:00.153Z,22.47
2018-07-14T06:12:30.864Z,17.27
2018-07-14T06:15:01.520Z,15.63
2018-07-14T06:17:32.208Z,15.67
2018-07-14T06:20:02.880Z,17.60
2018-07-14T06:22:33.539Z,19.27
2018-07-14T06:25:04.255Z,19.10
2018-07-14T06:27:34.922Z,19.63
2018-07-14T06:30:07.844Z,20.13
2018-07-14T06:32:38.583Z,17.40
2018-07-14T06:35:09.363Z,17.23
2018-07-14T06:37:40.054Z,17.37
2018-07-14T06:40:10.751Z,18.53
2018-07-14T06:42:41.495Z,16.00
2018-07-14T06:45:12.226Z,19.73
2018-07-14T06:47:42.875Z,15.93
2018-07-14T06:50:13.560Z,15.10
2018-07-14T06:52:44.262Z,15.00
2018-07-14T06:55:14.944Z,15.43
2018-07-14T06:57:45.654Z,15.50
2018-07-14T07:00:16.343Z,18.97
2018-07-14T07:02:47.346Z,19.23
2018-07-14T07:05:18.051Z,17.93
2018-07-14T07:07:48.815Z,15.50
2018-07-14T07:10:19.456Z,15.20
2018-07-14T07:12:50.126Z,14.17
2018-07-14T07:15:20.808Z,15.93
2018-07-14T07:17:51.487Z,13.87
2018-07-14T07:20:22.319Z,16.20
2018-07-14T07:22:53.414Z,13.13
2018-07-14T07:25:24.112Z,13.13
2018-07-14T07:27:54.884Z,13.83
2018-07-14T07:30:25.651Z,15.53
2018-07-14T07:32:56.383Z,13.93
2018-07-14T07:35:27.043Z,13.97
2018-07-14T07:37:57.852Z,14.67
2018-07-14T07:40:28.530Z,12.50
2018-07-14T07:42:59.253Z,13.00
2018-07-14T07:45:29.962Z,12.03
2018-07-14T07:48:00.600Z,12.37
2018-07-14T07:51:02.309Z,12.93
2018-07-14T07:53:32.966Z,11.67
2018-07-14T07:56:03.677Z,11.53
2018-07-14T07:58:34.330Z,11.27
2018-07-14T08:01:05.875Z,13.83
2018-07-14T08:03:36.679Z,11.03
2018-07-14T08:06:08.303Z,11.33
2018-07-14T08:08:39.047Z,11.13
2018-07-14T08:11:09.742Z,9.77
2018-07-14T08:13:40.414Z,10.03
2018-07-14T08:16:11.120Z,11.80
2018-07-14T08:18:41.758Z,11.80
2018-07-14T08:21:12.454Z,10.07
2018-07-14T08:23:43.200Z,9.97
2018-07-14T08:26:13.837Z,10.30
2018-07-14T08:28:44.493Z,10.97
2018-07-14T08:31:15.174Z,11.60
2018-07-14T08:33:45.918Z,11.43
2018-07-14T08:36:16.562Z,10.50
2018-07-14T08:38:47.476Z,11.27
2018-07-14T08:41:18.176Z,10.80
2018-07-14T08:43:49.129Z,12.97
2018-07-14T08:46:19.769Z,13.53
2018-07-14T08:48:50.635Z,14.57
2018-07-14T08:51:21.306Z,11.77
2018-07-14T08:53:52.003Z,10.93
2018-07-14T08:56:22.702Z,11.90
2018-07-14T08:58:53.351Z,12.10
2018-07-14T09:01:24.055Z,10.50
2018-07-14T09:03:54.759Z,10.33
2018-07-14T09:06:25.413Z,9.83
2018-07-14T09:08:56.147Z,10.20
2018-07-14T09:11:26.816Z,9.33
2018-07-14T09:13:57.509Z,9.03
2018-07-14T09:16:28.226Z,8.77
2018-07-14T09:18:58.887Z,8.67
2018-07-14T09:21:29.539Z,9.60
2018-07-14T09:24:00.233Z,8.20
2018-07-14T09:26:30.895Z,8.33
2018-07-14T09:29:01.605Z,8.53
2018-07-14T09:31:32.249Z,9.20
2018-07-14T09:34:02.604Z,9.37
2018-07-14T09:36:33.103Z,7.47
2018-07-14T09:39:05.132Z,9.67
2018-07-14T09:41:35.790Z,8.13
2018-07-14T09:44:06.554Z,18.97
2018-07-14T09:46:37.186Z,9.13
2018-07-14T09:49:07.960Z,9.97
2018-07-14T09:51:38.787Z,9.90
2018-07-14T09:54:09.418Z,8.70
2018-07-14T09:56:40.099Z,7.10
2018-07-14T09:59:10.784Z,6.90
2018-07-14T10:01:41.435Z,7.93
2018-07-14T10:04:12.078Z,8.33
2018-07-14T10:06:42.861Z,8.40
2018-07-14T10:09:13.584Z,7.27
2018-07-14T10:11:44.248Z,7.73
2018-07-14T10:14:14.931Z,7.57
2018-07-14T10:16:45.591Z,9.13
2018-07-14T10:19:16.232Z,8.37
2018-07-14T10:21:46.597Z,7.30
2018-07-14T10:24:17.140Z,8.50
2018-07-14T10:26:47.923Z,6.20
2018-07-14T10:29:18.588Z,7.87
2018-07-14T10:31:49.306Z,6.47
2018-07-14T10:34:19.937Z,11.23
2018-07-14T10:36:50.656Z,6.73
2018-07-14T10:39:21.330Z,7.07
2018-07-14T10:41:52.145Z,6.47
2018-07-14T10:44:22.492Z,5.50
2018-07-14T10:46:53.250Z,6.20
2018-07-14T10:49:23.929Z,7.03
2018-07-14T10:51:54.774Z,6.80
2018-07-14T10:54:25.460Z,5.30
2018-07-14T10:56:56.171Z,6.93
2018-07-14T10:59:26.477Z,5.40
2018-07-14T11:01:57.077Z,5.73
2018-07-14T11:04:27.808Z,13.43
2018-07-14T11:06:58.511Z,9.93
2018-07-14T11:09:29.168Z,5.93
2018-07-14T11:11:59.890Z,6.53
2018-07-14T11:14:30.585Z,5.20
2018-07-14T11:17:01.592Z,5.93
2018-07-14T11:19:32.272Z,7.77
2018-07-14T11:22:03.002Z,5.33
2018-07-14T11:24:33.764Z,4.70
2018-07-14T11:27:04.499Z,6.83
2018-07-14T11:29:35.433Z,7.80
2018-07-14T11:32:06.245Z,7.47
2018-07-14T11:34:37.110Z,6.97
2018-07-14T11:37:07.879Z,5.97
2018-07-14T11:39:38.746Z,5.60
2018-07-14T11:42:09.502Z,6.07
2018-07-14T11:44:40.255Z,6.63
2018-07-14T11:47:11.007Z,5.33
2018-07-14T11:49:41.708Z,7.10
2018-07-14T11:52:12.443Z,7.67
2018-07-14T11:54:43.197Z,5.60
2018-07-14T11:57:13.959Z,7.07
2018-07-14T11:59:44.677Z,6.27
2018-07-14T12:02:15.412Z,6.93
2018-07-14T12:04:46.234Z,4.37
2018-07-14T12:07:16.979Z,6.10
2018-07-14T12:09:47.685Z,5.70
2018-07-14T12:12:18.495Z,5.43
2018-07-14T12:14:49.258Z,4.60
2018-07-14T12:17:19.987Z,4.33
2018-07-14T12:19:50.728Z,4.33
2018-07-14T12:22:21.421Z,4.50
2018-07-14T12:24:52.233Z,5.27
2018-07-14T12:27:24.062Z,4.80
2018-07-14T12:29:54.735Z,6.53
2018-07-14T12:32:25.532Z,5.57
2018-07-14T12:34:56.242Z,4.87
2018-07-14T12:37:27.468Z,5.00
2018-07-14T12:39:58.341Z,5.43
2018-07-14T12:42:29.035Z,5.47
2018-07-14T12:44:59.894Z,4.70
2018-07-14T12:47:30.612Z,3.93
2018-07-14T12:50:01.306Z,5.00
2018-07-14T12:52:32.045Z,4.40
2018-07-14T12:55:02.740Z,4.47
2018-07-14T12:57:33.549Z,4.60
2018-07-14T13:00:04.583Z,5.07
2018-07-14T13:02:35.335Z,4.77
2018-07-14T13:05:06.392Z,4.50
2018-07-14T13:07:37.141Z,3.93
2018-07-14T13:10:08.952Z,4.00
2018-07-14T13:12:39.792Z,4.03
2018-07-14T13:15:10.520Z,4.60
2018-07-14T13:17:41.176Z,4.97
2018-07-14T13:20:11.867Z,4.70
2018-07-14T13:22:42.581Z,4.07
2018-07-14T13:25:13.254Z,4.83
2018-07-14T13:27:43.987Z,5.00
2018-07-14T13:30:15.464Z,4.10
2018-07-14T13:32:46.293Z,3.80
2018-07-14T13:35:16.953Z,4.23
2018-07-14T13:37:54.276Z,3.57
2018-07-14T13:40:24.981Z,4.37
2018-07-14T13:42:55.667Z,4.77
2018-07-14T13:45:26.433Z,7.73
2018-07-14T13:47:57.145Z,5.73
2018-07-14T13:50:27.872Z,4.70
2018-07-14T13:52:58.635Z,4.00
2018-07-14T13:55:29.280Z,4.37
2018-07-14T13:58:00.191Z,5.57
2018-07-14T14:00:30.920Z,3.70
2018-07-14T14:03:01.735Z,3.70
2018-07-14T14:05:32.454Z,3.50
2018-07-14T14:08:03.343Z,3.67
2018-07-14T14:10:34.010Z,4.10
2018-07-14T14:13:04.868Z,4.43
2018-07-14T14:15:35.569Z,4.07
2018-07-14T14:18:06.620Z,3.43
2018-07-14T14:20:37.377Z,3.43
2018-07-14T14:23:08.102Z,3.40
2018-07-14T14:25:38.860Z,3.20
2018-07-14T14:28:09.944Z,2.80
2018-07-14T14:30:40.652Z,7.33
2018-07-14T14:33:11.408Z,5.40
2018-07-14T14:35:42.089Z,3.00
2018-07-14T14:38:12.792Z,6.40
2018-07-14T14:40:43.534Z,3.00
2018-07-14T14:43:14.241Z,4.03
2018-07-14T14:45:44.958Z,3.27
2018-07-14T14:48:15.755Z,3.50
2018-07-14T14:50:46.506Z,3.73
2018-07-14T14:53:17.219Z,3.30
2018-07-14T14:55:47.920Z,7.40
2018-07-14T14:58:18.528Z,9.27
2018-07-14T15:00:49.406Z,15.00
2018-07-14T15:03:20.188Z,38.90
2018-07-14T15:05:50.927Z,8.67
2018-07-14T15:08:21.673Z,4.70
2018-07-14T15:10:52.403Z,3.20
2018-07-14T15:13:23.188Z,3.87
2018-07-14T15:15:54.034Z,3.00
2018-07-14T15:18:25.536Z,2.67
2018-07-14T15:20:56.316Z,4.33
2018-07-14T15:23:27.113Z,2.80
2018-07-14T15:25:57.963Z,3.67
2018-07-14T15:28:28.842Z,3.20
2018-07-14T15:30:59.612Z,2.53
2018-07-14T15:33:30.388Z,2.77
2018-07-14T15:36:01.212Z,4.03
2018-07-14T15:38:31.975Z,2.83
2018-07-14T15:41:02.780Z,3.80
2018-07-14T15:43:33.596Z,12.60
2018-07-14T15:46:04.520Z,14.90
2018-07-14T15:48:35.330Z,18.37
2018-07-14T15:51:06.195Z,45.50
2018-07-14T15:53:37.081Z,69.23
2018-07-14T15:56:07.962Z,10.23
2018-07-14T15:58:39.295Z,36.83
2018-07-14T16:01:10.082Z,54.47
2018-07-14T16:03:40.825Z,37.40
2018-07-14T16:06:11.608Z,15.47
2018-07-14T16:08:42.412Z,4.93
2018-07-14T16:11:13.260Z,7.53
2018-07-14T16:13:44.254Z,5.97
2018-07-14T16:16:14.897Z,4.77
2018-07-14T16:18:45.920Z,5.23
2018-07-14T16:21:16.687Z,9.30
2018-07-14T16:23:47.508Z,4.57
2018-07-14T16:26:18.217Z,3.03
2018-07-14T16:28:48.952Z,3.00
2018-07-14T16:31:19.561Z,4.43
2018-07-14T16:33:50.335Z,5.13
2018-07-14T16:36:21.079Z,3.43
2018-07-14T16:38:51.870Z,4.53
2018-07-14T16:41:22.760Z,4.80
2018-07-14T16:43:53.573Z,5.07
2018-07-14T16:46:24.483Z,2.87
2018-07-14T16:48:55.354Z,3.60
2018-07-14T16:51:26.047Z,3.77
2018-07-14T16:53:56.781Z,3.00
2018-07-14T16:56:27.475Z,2.43
2018-07-14T16:58:58.227Z,2.70
2018-07-14T17:01:29.043Z,2.30
2018-07-14T17:03:59.771Z,2.60
2018-07-14T17:06:30.484Z,4.43
2018-07-14T17:09:01.192Z,3.20
2018-07-14T17:11:31.892Z,2.40
2018-07-14T17:14:02.686Z,3.67
2018-07-14T17:16:33.347Z,2.53
2018-07-14T17:19:04.231Z,2.63
2018-07-14T17:21:34.956Z,2.60
2018-07-14T17:24:05.862Z,2.70
2018-07-14T17:26:36.566Z,3.13
2018-07-14T17:29:07.371Z,3.03
2018-07-14T17:31:38.082Z,3.10
2018-07-14T17:34:08.851Z,2.50
2018-07-14T17:36:39.523Z,4.73
2018-07-14T17:39:17.591Z,2.70
2018-07-14T17:41:48.405Z,2.47
2018-07-14T17:44:19.109Z,2.80
2018-07-14T17:46:50.111Z,2.60
2018-07-14T17:49:20.792Z,2.77
2018-07-14T17:51:51.498Z,4.07
2018-07-14T17:54:22.231Z,2.77
2018-07-14T17:56:52.926Z,2.93
2018-07-14T17:59:23.584Z,3.73
2018-07-14T18:01:54.282Z,3.23
2018-07-14T18:04:24.964Z,2.50
2018-07-14T18:06:55.679Z,2.60
2018-07-14T18:09:26.038Z,5.50
2018-07-14T18:11:56.647Z,2.67
2018-07-14T18:14:27.327Z,2.90
2018-07-14T18:16:57.628Z,3.37
2018-07-14T18:19:28.170Z,2.60
2018-07-14T18:21:58.865Z,2.93
2018-07-14T18:24:29.594Z,4.13
2018-07-14T18:27:00.277Z,2.33
2018-07-14T18:29:31.697Z,2.87
2018-07-14T18:32:02.364Z,2.83
2018-07-14T18:34:33.101Z,3.13
2018-07-14T18:37:03.770Z,2.20
2018-07-14T18:39:34.471Z,2.57
2018-07-14T18:42:05.399Z,2.50
2018-07-14T18:44:36.062Z,2.23
2018-07-14T18:47:06.837Z,2.03
2018-07-14T18:49:37.659Z,2.50
2018-07-14T18:52:08.594Z,2.00
2018-07-14T18:54:39.238Z,2.03
2018-07-14T18:57:10.017Z,2.50
2018-07-14T18:59:40.455Z,3.00
2018-07-14T19:02:11.160Z,3.63
2018-07-14T19:04:41.864Z,2.80
2018-07-14T19:07:12.803Z,1.90
2018-07-14T19:09:43.441Z,2.33
2018-07-14T19:12:14.330Z,2.10
2018-07-14T19:14:45.019Z,2.50
2018-07-14T19:17:15.878Z,2.63
2018-07-14T19:19:46.559Z,2.13
2018-07-14T19:22:17.447Z,4.13
2018-07-14T19:24:48.192Z,2.33
2018-07-14T19:27:18.935Z,2.10
2018-07-14T19:29:50.054Z,1.80
2018-07-14T19:32:20.732Z,2.00
2018-07-14T19:34:51.547Z,2.20
2018-07-14T19:37:22.222Z,2.40
2018-07-14T19:39:52.992Z,2.00
2018-07-14T19:42:23.663Z,3.77
2018-07-14T19:44:54.458Z,2.70
2018-07-14T19:47:25.123Z,2.20
2018-07-14T19:49:55.859Z,1.80
2018-07-14T19:52:26.688Z,2.70
2018-07-14T19:54:57.573Z,1.87
2018-07-14T19:57:28.406Z,2.20
2018-07-14T20:00:01.017Z,2.27
2018-07-14T20:02:31.671Z,1.67
2018-07-14T20:05:02.398Z,2.90
2018-07-14T20:07:33.184Z,5.13
2018-07-14T20:10:04.011Z,3.03
2018-07-14T20:12:34.643Z,2.73
2018-07-14T20:15:05.615Z,3.70
2018-07-14T20:17:36.325Z,1.70
2018-07-14T20:20:08.910Z,5.63
2018-07-14T20:22:39.959Z,4.77
2018-07-14T20:25:10.678Z,2.13
2018-07-14T20:27:41.503Z,2.67
2018-07-14T20:30:12.235Z,2.20
2018-07-14T20:32:42.951Z,1.70
2018-07-14T20:35:13.746Z,2.37
2018-07-14T20:37:44.423Z,2.80
2018-07-14T20:40:15.144Z,2.57
2018-07-14T20:42:45.893Z,2.20
2018-07-14T20:45:16.928Z,3.50
2018-07-14T20:47:47.696Z,3.00
2018-07-14T20:50:18.496Z,2.07
2018-07-14T20:52:49.184Z,2.20
2018-07-14T20:55:20.028Z,3.67
2018-07-14T20:57:50.723Z,5.23
2018-07-14T21:00:21.410Z,3.77
2018-07-14T21:02:52.097Z,2.00
2018-07-14T21:05:22.704Z,2.13
2018-07-14T21:07:53.410Z,5.13
2018-07-14T21:10:24.141Z,2.20
2018-07-14T21:12:54.802Z,1.63
2018-07-14T21:15:25.619Z,6.10
2018-07-14T21:17:56.342Z,1.80
2018-07-14T21:20:27.034Z,2.97
2018-07-14T21:22:57.684Z,2.20
2018-07-14T21:25:28.325Z,2.13
2018-07-14T21:27:59.065Z,2.10
2018-07-14T21:30:29.801Z,4.27
2018-07-14T21:33:00.463Z,1.90
2018-07-14T21:35:31.107Z,2.00
2018-07-14T21:41:03.011Z,1.77
2018-07-14T21:43:34.257Z,2.67
2018-07-14T21:46:05.172Z,1.80
2018-07-14T21:48:35.879Z,6.83
2018-07-14T21:51:06.876Z,4.50
2018-07-14T21:53:37.541Z,6.63
2018-07-14T21:56:08.270Z,1.60
2018-07-14T21:58:38.925Z,1.83
2018-07-14T22:01:14.826Z,1.87
2018-07-14T22:03:45.491Z,1.77
2018-07-14T22:06:16.169Z,4.90
2018-07-14T22:08:46.830Z,2.53
2018-07-14T22:11:17.512Z,2.20
2018-07-14T22:13:48.292Z,3.93
2018-07-14T22:16:18.908Z,2.33
2018-07-14T22:18:49.556Z,2.00
2018-07-14T22:21:20.279Z,3.00
2018-07-14T22:23:50.930Z,2.67
2018-07-14T22:26:21.715Z,2.90
2018-07-14T22:28:52.428Z,2.60
2018-07-14T22:31:23.236Z,9.43
2018-07-14T22:33:53.943Z,4.97
2018-07-14T22:36:25.045Z,2.90
2018-07-14T22:38:55.727Z,3.67
2018-07-14T22:41:26.398Z,4.80
2018-07-14T22:43:57.047Z,4.17
2018-07-14T22:46:27.731Z,2.87
2018-07-14T22:48:58.413Z,3.80
2018-07-14T22:51:29.071Z,2.60
2018-07-14T22:53:59.759Z,3.23
2018-07-14T22:56:30.468Z,3.93
2018-07-14T22:59:01.108Z,2.93
2018-07-14T23:01:31.828Z,2.90
2018-07-14T23:04:02.811Z,2.80
2018-07-14T23:06:33.481Z,2.43
2018-07-14T23:09:04.264Z,3.07
2018-07-14T23:11:34.912Z,2.97
2018-07-14T23:14:05.598Z,3.43
2018-07-14T23:16:36.257Z,2.90
2018-07-14T23:19:06.979Z,4.07
2018-07-14T23:21:38.750Z,3.47
2018-07-14T23:24:09.530Z,3.20
2018-07-14T23:26:40.175Z,2.93
2018-07-14T23:29:10.866Z,2.97
2018-07-14T23:31:41.631Z,4.47
2018-07-14T23:34:12.299Z,4.03
2018-07-14T23:36:42.937Z,3.30
2018-07-14T23:39:13.605Z,3.20
2018-07-14T23:41:44.283Z,5.80
2018-07-14T23:44:14.979Z,3.30
2018-07-14T23:46:45.636Z,3.10
2018-07-14T23:49:16.290Z,3.30
2018-07-14T23:51:46.991Z,5.57
2018-07-14T23:54:17.856Z,3.17
2018-07-14T23:56:48.650Z,3.30
2018-07-14T23:59:19.292Z,3.90
